Time;durP1;ratioP1;P1;durP2;ratioP2;P2;SDS_P1;SDS_P2;PMS_P1;PMS_P2;Temp;Humidity;BMP_temperature;BMP_pressure;BME280_temperature;BME280_humidity;BME280_pressure;Samples;Min_cycle;Max_cycle;Signal;HPM_P1;HPM_P2
2022/02/19 00:01:28;;;;;;;16.65;3.58;;;;;;;4.49;80.39;100411.75;6264943;22;20023;-72
2022/02/19 00:03:56;;;;;;;17.33;3.97;;;;;;;4.44;80.23;100387.16;6264615;22;20483;-72
2022/02/19 00:06:24;;;;;;;12.23;2.92;;;;;;;4.46;80.03;100380.09;6265948;22;20037;-72
2022/02/19 00:08:52;;;;;;;13.13;3.17;;;;;;;4.49;79.72;100409.13;6266138;22;20483;-73
2022/02/19 00:11:20;;;;;;;18.60;3.40;;;;;;;4.47;79.24;100412.66;6265689;22;20099;-73
2022/02/19 00:13:48;;;;;;;13.20;3.03;;;;;;;4.46;79.28;100402.97;6265411;22;20059;-74
2022/02/19 00:16:16;;;;;;;11.68;2.83;;;;;;;4.43;79.39;100414.47;6265553;22;20028;-73
2022/02/19 00:18:45;;;;;;;12.32;3.13;;;;;;;4.34;80.15;100419.88;6267009;22;20186;-73
2022/02/19 00:21:13;;;;;;;13.18;2.38;;;;;;;4.37;80.38;100422.47;6264208;22;20165;-73
2022/02/19 00:23:42;;;;;;;10.02;2.25;;;;;;;4.42;79.38;100455.00;6266465;22;20070;-73
2022/02/19 00:26:10;;;;;;;10.15;2.65;;;;;;;4.43;78.47;100453.25;6266367;22;20022;-73
2022/02/19 00:28:39;;;;;;;9.52;2.75;;;;;;;4.46;78.04;100458.47;6265140;22;20500;-73
2022/02/19 00:31:07;;;;;;;12.45;3.20;;;;;;;4.48;77.31;100476.06;6265707;22;20030;-73
2022/02/19 00:33:35;;;;;;;7.80;1.90;;;;;;;4.52;77.32;100473.38;6264472;22;20217;-73
2022/02/19 00:36:04;;;;;;;10.95;3.17;;;;;;;4.50;76.84;100441.69;6265583;22;20670;-74
2022/02/19 00:38:32;;;;;;;13.43;2.60;;;;;;;4.52;76.79;100487.47;6265348;22;20126;-75
2022/02/19 00:41:02;;;;;;;15.82;3.55;;;;;;;4.49;77.30;100508.63;6264091;22;20063;-75
2022/02/19 00:43:30;;;;;;;7.97;2.40;;;;;;;4.51;76.05;100495.41;6265187;22;20030;-76
2022/02/19 00:45:58;;;;;;;13.77;2.25;;;;;;;4.50;76.28;100507.75;6265818;22;20062;-72
2022/02/19 00:48:26;;;;;;;9.57;2.13;;;;;;;4.52;76.52;100516.53;6265297;22;20402;-73
2022/02/19 00:51:16;;;;;;;5.50;2.17;;;;;;;4.49;75.26;100517.44;6264949;22;20054;-71
2022/02/19 00:53:44;;;;;;;5.93;2.00;;;;;;;4.46;76.82;100530.69;6264444;22;20090;-73
2022/02/19 00:56:12;;;;;;;9.60;2.35;;;;;;;4.47;75.45;100518.34;6266222;22;20045;-73
2022/02/19 00:58:41;;;;;;;11.00;2.88;;;;;;;4.45;75.14;100523.66;6264273;22;20103;-73
2022/02/19 01:01:09;;;;;;;14.43;3.67;;;;;;;4.44;75.39;100529.84;6265643;22;20098;-73
2022/02/19 01:03:37;;;;;;;14.93;2.33;;;;;;;4.45;75.87;100536.84;6265662;22;20023;-73
2022/02/19 01:06:05;;;;;;;8.65;2.65;;;;;;;4.39;76.84;100554.53;6265396;22;20348;-73
2022/02/19 01:08:34;;;;;;;9.98;2.53;;;;;;;4.39;77.02;100554.53;6265204;22;20487;-76
2022/02/19 01:11:02;;;;;;;11.75;2.70;;;;;;;4.45;75.59;100559.78;6265809;22;20114;-75
2022/02/19 01:13:30;;;;;;;7.10;2.22;;;;;;;4.48;75.72;100572.97;6264517;22;20033;-75
2022/02/19 01:15:58;;;;;;;12.32;3.00;;;;;;;4.55;75.77;100579.91;6265723;22;20055;-75
2022/02/19 01:18:26;;;;;;;16.35;2.58;;;;;;;4.51;76.84;100588.75;6265056;22;20616;-75
2022/02/19 01:20:54;;;;;;;11.30;3.03;;;;;;;4.55;76.39;100592.25;6265221;22;20094;-74
2022/02/19 01:23:22;;;;;;;12.18;3.00;;;;;;;4.54;76.67;100591.38;6264610;22;20027;-75
2022/02/19 01:25:51;;;;;;;12.57;2.78;;;;;;;4.57;75.58;100619.53;6265933;22;20034;-75
2022/02/19 01:28:20;;;;;;;14.15;2.50;;;;;;;4.61;75.78;100614.19;6265685;22;20024;-75
2022/02/19 01:30:48;;;;;;;8.75;1.80;;;;;;;4.60;75.26;100623.03;6265090;22;20026;-75
2022/02/19 01:33:16;;;;;;;12.07;3.40;;;;;;;4.67;74.19;100644.97;6265010;22;20345;-75
2022/02/19 01:35:45;;;;;;;12.98;2.92;;;;;;;4.66;75.02;100648.50;6266095;22;20050;-75
2022/02/19 01:38:13;;;;;;;9.07;2.85;;;;;;;4.64;74.83;100643.22;6266876;22;20453;-75
2022/02/19 01:40:41;;;;;;;8.80;2.15;;;;;;;4.67;74.12;100668.78;6264419;22;20461;-75
2022/02/19 01:43:11;;;;;;;14.43;2.40;;;;;;;4.66;75.15;100681.09;6265347;22;20054;-75
2022/02/19 01:45:39;;;;;;;13.20;2.40;;;;;;;4.64;74.83;100676.72;6264466;22;20059;-76
2022/02/19 01:48:07;;;;;;;8.23;2.53;;;;;;;4.61;75.08;100664.41;6265526;22;20643;-76
2022/02/19 01:50:35;;;;;;;12.77;3.08;;;;;;;4.60;75.59;100672.38;6263969;22;20089;-77
2022/02/19 01:53:04;;;;;;;12.05;2.42;;;;;;;4.59;75.00;100686.47;6263892;22;20039;-75
2022/02/19 01:55:32;;;;;;;12.68;2.90;;;;;;;4.55;75.15;100690.91;6263678;22;20397;-76
2022/02/19 01:58:05;;;;;;;8.93;2.78;;;;;;;4.55;76.67;100700.63;6265050;22;20130;-72
2022/02/19 02:00:34;;;;;;;17.07;3.33;;;;;;;4.60;76.83;100693.50;6264802;22;20024;-72
2022/02/19 02:03:02;;;;;;;12.10;2.55;;;;;;;4.63;76.66;100704.03;6265222;22;20020;-72
2022/02/19 02:05:33;;;;;;;20.38;3.70;;;;;;;4.63;76.55;100702.28;6264813;22;20028;-75
2022/02/19 02:08:04;;;;;;;13.80;2.70;;;;;;;4.64;76.57;100711.94;6263874;22;20059;-76
2022/02/19 02:10:34;;;;;;;11.90;4.32;;;;;;;4.60;76.57;100719.94;6265387;22;20020;-76
2022/02/19 02:13:04;;;;;;;11.85;2.63;;;;;;;4.54;76.44;100710.28;6264142;22;20089;-72
2022/02/19 02:15:34;;;;;;;9.68;2.53;;;;;;;4.49;77.33;100723.56;6264197;22;20091;-72
2022/02/19 02:18:02;;;;;;;13.27;4.70;;;;;;;4.46;77.69;100728.88;6263855;22;20095;-72
2022/02/19 02:20:30;;;;;;;13.38;2.95;;;;;;;4.47;77.55;100711.22;6264584;22;20527;-72
2022/02/19 02:22:59;;;;;;;10.38;2.45;;;;;;;4.51;77.27;100720.00;6262987;22;20098;-72
2022/02/19 02:25:29;;;;;;;15.18;3.72;;;;;;;4.47;77.81;100730.59;6264613;22;20058;-72
2022/02/19 02:27:57;;;;;;;20.58;3.10;;;;;;;4.47;78.02;100737.66;6263896;22;20070;-72
2022/02/19 02:30:31;;;;;;;16.58;3.30;;;;;;;4.42;78.23;100745.63;6265169;22;20054;-73
2022/02/19 02:33:06;;;;;;;12.63;4.75;;;;;;;4.46;76.64;100744.72;6264294;22;20389;-73
2022/02/19 02:35:38;;;;;;;14.10;3.20;;;;;;;4.36;78.00;100747.44;6264901;22;20034;-75
2022/02/19 02:38:08;;;;;;;13.77;2.75;;;;;;;4.41;77.07;100749.16;6263884;22;20127;-74
2022/02/19 02:40:37;;;;;;;12.68;3.33;;;;;;;4.39;76.91;100739.47;6264848;22;20110;-75
2022/02/19 02:43:05;;;;;;;13.90;3.53;;;;;;;4.43;76.14;100775.59;6264050;22;20027;-76
2022/02/19 02:45:33;;;;;;;10.10;2.72;;;;;;;4.43;76.26;100771.16;6263868;22;20020;-77
2022/02/19 02:48:21;;;;;;;10.70;3.38;;;;;;;4.36;76.49;100758.91;6263108;22;20137;-77
2022/02/19 02:50:50;;;;;;;16.23;3.00;;;;;;;4.38;76.39;100775.59;6264380;22;20147;-73
2022/02/19 02:53:39;;;;;;;13.02;2.72;;;;;;;4.38;76.11;100806.44;6261701;22;20028;-71
2022/02/19 02:56:07;;;;;;;15.93;3.10;;;;;;;4.40;75.16;100792.31;6265469;22;20131;-72
2022/02/19 02:58:35;;;;;;;13.52;3.33;;;;;;;4.37;75.66;100789.69;6264773;22;20024;-73
2022/02/19 03:01:03;;;;;;;10.63;2.63;;;;;;;4.35;75.01;100790.59;6264077;22;20043;-73
2022/02/19 03:03:31;;;;;;;8.63;2.83;;;;;;;4.40;74.98;100786.16;6264410;22;20358;-74
2022/02/19 03:05:59;;;;;;;22.20;4.53;;;;;;;4.38;74.93;100802.03;6262792;22;20027;-73
2022/02/19 03:08:27;;;;;;;15.93;3.70;;;;;;;4.37;74.45;100778.25;6264667;22;20102;-73
2022/02/19 03:10:56;;;;;;;7.70;2.45;;;;;;;4.42;74.01;100795.81;6262604;22;20055;-73
2022/02/19 03:13:24;;;;;;;16.73;2.75;;;;;;;4.40;73.98;100800.25;6264123;22;20243;-73
2022/02/19 03:15:52;;;;;;;11.93;3.13;;;;;;;4.35;74.82;100811.75;6263926;22;20074;-73
2022/02/19 03:18:20;;;;;;;13.32;3.03;;;;;;;4.35;74.19;100809.97;6264665;22;20027;-73
2022/02/19 03:20:48;;;;;;;9.82;3.05;;;;;;;4.42;73.67;100827.53;6264767;22;20027;-73
2022/02/19 03:23:16;;;;;;;12.93;3.00;;;;;;;4.35;73.75;100812.59;6263630;22;20032;-73
2022/02/19 03:25:44;;;;;;;15.43;3.05;;;;;;;4.35;73.60;100822.31;6264378;22;20047;-73
2022/02/19 03:28:13;;;;;;;7.07;2.85;;;;;;;4.35;73.86;100824.94;6263485;22;20284;-77
2022/02/19 03:30:40;;;;;;;14.75;3.10;;;;;;;4.42;73.49;100845.16;6262724;22;20487;-76
2022/02/19 03:33:08;;;;;;;13.15;3.38;;;;;;;4.41;73.83;100853.97;6263355;22;20019;-76
2022/02/19 03:35:36;;;;;;;12.05;3.47;;;;;;;4.42;74.94;100868.94;6262878;22;20098;-76
2022/02/19 03:38:04;;;;;;;12.77;3.55;;;;;;;4.50;74.05;100875.06;6263442;22;20051;-76
2022/02/19 03:40:32;;;;;;;34.10;5.47;;;;;;;4.48;74.45;100874.19;6263274;22;20023;-76
2022/02/19 03:43:01;;;;;;;15.25;3.25;;;;;;;4.45;74.83;100871.56;6263010;22;20030;-76
2022/02/19 03:45:35;;;;;;;16.70;3.58;;;;;;;4.47;73.44;100877.72;6262322;22;20028;-76
2022/02/19 03:48:03;;;;;;;;;;;;;;;4.48;72.39;100888.28;6263784;22;20051;-76
2022/02/19 03:50:31;;;;;;;13.00;3.38;;;;;;;4.47;72.94;100893.56;6263091;22;20230;-76
2022/02/19 03:52:59;;;;;;;23.58;4.53;;;;;;;4.48;73.32;100895.34;6260241;22;20100;-76
2022/02/19 03:55:27;;;;;;;23.67;4.05;;;;;;;4.40;74.75;100900.66;6263090;22;20019;-76
2022/02/19 03:57:55;;;;;;;9.80;2.35;;;;;;;4.52;71.73;100912.03;6263287;22;20423;-76
2022/02/19 04:00:24;;;;;;;9.85;2.78;;;;;;;4.52;71.62;100919.97;6264274;22;20028;-73
2022/02/19 04:02:54;;;;;;;8.07;2.70;;;;;;;4.52;71.22;100926.13;6261756;22;20255;-73
2022/02/19 04:05:22;;;;;;;11.30;3.20;;;;;;;4.59;71.03;100919.91;6266113;22;20286;-73
2022/02/19 04:07:50;;;;;;;14.85;2.63;;;;;;;4.61;71.99;100919.91;6262743;22;20035;-76
2022/02/19 04:10:18;;;;;;;9.55;2.63;;;;;;;4.63;71.44;100923.41;6263182;22;20473;-76
2022/02/19 04:12:46;;;;;;;13.95;2.67;;;;;;;4.64;70.29;100951.59;6262385;22;20081;-74
2022/02/19 04:15:13;;;;;;;13.45;3.35;;;;;;;4.61;71.35;100954.25;6264859;22;20098;-74
2022/02/19 04:17:41;;;;;;;16.50;2.88;;;;;;;4.60;72.82;100948.09;6262927;22;20028;-77
2022/02/19 04:20:11;;;;;;;16.52;3.10;;;;;;;4.57;73.82;100956.03;6264948;22;20034;-76
2022/02/19 04:22:41;;;;;;;7.05;2.33;;;;;;;4.55;74.58;100964.88;6262450;22;20126;-76
2022/02/19 04:25:10;;;;;;;13.05;2.67;;;;;;;4.51;74.43;100977.22;6263990;22;20043;-76
2022/02/19 04:27:37;;;;;;;9.55;3.53;;;;;;;4.49;73.31;100960.50;6262729;22;20066;-75
2022/02/19 04:30:08;;;;;;;13.02;2.92;;;;;;;4.53;72.92;100972.81;6263451;22;20446;-72
2022/02/19 04:32:36;;;;;;;18.80;3.13;;;;;;;4.52;73.78;100975.47;6262887;22;20323;-72
2022/02/19 04:35:06;;;;;;;24.13;4.03;;;;;;;4.49;74.03;100979.88;6263610;22;20058;-72
2022/02/19 04:37:35;;;;;;;15.40;3.35;;;;;;;4.47;74.28;101000.13;6261900;22;20267;-72
2022/02/19 04:40:05;;;;;;;15.95;3.47;;;;;;;4.51;73.06;100981.63;6262856;22;20400;-72
2022/02/19 04:42:34;;;;;;;13.48;2.83;;;;;;;4.45;74.12;100987.84;6262131;22;20044;-72
2022/02/19 04:45:01;;;;;;;12.55;3.08;;;;;;;4.39;75.14;101003.69;6264667;22;20023;-73
2022/02/19 04:47:29;;;;;;;7.97;2.75;;;;;;;4.32;75.29;101001.97;6264701;22;20059;-72
2022/02/19 04:49:57;;;;;;;11.40;2.70;;;;;;;4.15;76.01;100992.34;6265120;22;20437;-72
2022/02/19 04:52:26;;;;;;;10.30;3.58;;;;;;;4.20;75.55;101013.47;6263054;22;20074;-72
2022/02/19 04:54:56;;;;;;;10.68;3.17;;;;;;;4.13;75.78;101011.72;6265164;22;20024;-72
2022/02/19 04:57:23;;;;;;;16.10;3.28;;;;;;;4.15;76.02;101024.03;6265405;22;20055;-72
2022/02/19 04:59:52;;;;;;;10.32;2.80;;;;;;;4.16;76.26;101019.66;6266025;22;20024;-72
2022/02/19 05:02:20;;;;;;;14.35;3.13;;;;;;;4.22;76.25;101017.88;6264946;22;20024;-72
2022/02/19 05:04:48;;;;;;;16.83;3.30;;;;;;;4.24;76.99;101034.59;6264498;22;20020;-73
2022/02/19 05:07:16;;;;;;;13.43;3.22;;;;;;;4.19;76.98;101017.88;6264267;22;20562;-76
2022/02/19 05:09:44;;;;;;;17.20;2.97;;;;;;;4.17;77.00;101019.66;6265214;22;20032;-76
2022/02/19 05:12:13;;;;;;;11.43;2.33;;;;;;;4.18;76.23;101044.28;6263938;22;20047;-77
2022/02/19 05:14:41;;;;;;;8.40;2.05;;;;;;;4.22;75.91;101039.00;6265261;22;20055;-76
2022/02/19 05:17:09;;;;;;;9.68;3.25;;;;;;;4.28;74.79;101053.94;6265359;22;20031;-76
2022/02/19 05:19:36;;;;;;;11.98;2.72;;;;;;;4.33;74.56;101049.53;6264810;22;20030;-77
2022/02/19 05:22:05;;;;;;;9.93;2.80;;;;;;;4.24;74.44;101038.97;6264035;22;20030;-76
2022/02/19 05:24:36;;;;;;;16.92;3.35;;;;;;;4.24;74.86;101068.94;6265378;22;20024;-77
2022/02/19 05:27:04;;;;;;;11.85;2.75;;;;;;;4.22;75.50;101069.78;6264765;22;20089;-76
2022/02/19 05:29:34;;;;;;;5.93;2.08;;;;;;;4.18;76.35;101055.72;6265947;22;20045;-76
2022/02/19 05:32:01;;;;;;;11.90;2.30;;;;;;;4.13;77.14;101068.06;6263603;22;20030;-76
2022/02/19 05:34:29;;;;;;;15.38;2.80;;;;;;;4.09;77.02;101063.69;6264770;22;20032;-76
2022/02/19 05:36:57;;;;;;;13.35;2.47;;;;;;;4.00;77.86;101061.03;6264319;22;20047;-77
2022/02/19 05:39:25;;;;;;;9.18;1.77;;;;;;;4.03;77.24;101061.91;6264651;22;20094;-76
2022/02/19 05:41:53;;;;;;;12.57;2.75;;;;;;;4.01;77.14;101070.72;6264063;22;20028;-76
2022/02/19 05:44:21;;;;;;;18.38;3.58;;;;;;;3.98;78.39;101061.03;6265413;22;20051;-77
2022/02/19 05:46:50;;;;;;;13.30;3.00;;;;;;;4.03;78.80;101071.59;6263806;22;20054;-74
2022/02/19 05:49:18;;;;;;;14.10;3.38;;;;;;;4.04;78.71;101083.94;6264641;22;20061;-76
2022/02/19 05:51:49;;;;;;;16.05;3.50;;;;;;;3.97;79.17;101080.41;6264164;22;20028;-76
2022/02/19 05:54:17;;;;;;;14.48;3.55;;;;;;;3.97;79.31;101072.50;6262854;22;20104;-75
2022/02/19 05:56:45;;;;;;;8.32;2.92;;;;;;;3.95;79.27;101083.91;6264476;22;20098;-75
2022/02/19 05:59:14;;;;;;;12.93;3.08;;;;;;;3.91;80.09;101096.25;6264364;22;20184;-75
2022/02/19 06:01:42;;;;;;;13.10;2.88;;;;;;;3.78;81.35;101090.09;6263118;22;20501;-76
2022/02/19 06:04:13;;;;;;;13.38;2.92;;;;;;;3.81;81.26;101092.72;6265430;22;20026;-75
2022/02/19 06:06:41;;;;;;;18.83;3.33;;;;;;;3.88;80.73;101094.50;6263655;22;20020;-75
2022/02/19 06:09:09;;;;;;;14.88;3.10;;;;;;;3.86;80.73;101092.72;6263670;22;20130;-75
2022/02/19 06:11:36;;;;;;;17.90;4.00;;;;;;;3.88;80.41;101085.69;6264773;22;20349;-76
2022/02/19 06:14:04;;;;;;;9.25;2.65;;;;;;;3.88;80.72;101094.50;6263629;22;20319;-72
2022/02/19 06:16:32;;;;;;;13.13;3.03;;;;;;;3.87;80.43;101089.22;6263108;22;20053;-73
2022/02/19 06:19:00;;;;;;;15.27;3.35;;;;;;;3.88;79.99;101096.25;6263804;22;20421;-72
2022/02/19 06:21:30;;;;;;;17.65;3.15;;;;;;;3.89;79.30;101114.72;6263570;22;20023;-73
2022/02/19 06:23:57;;;;;;;13.98;2.53;;;;;;;3.89;79.74;101112.09;6262966;22;20075;-73
2022/02/19 06:26:25;;;;;;;20.65;3.10;;;;;;;3.96;78.78;101107.69;6264768;22;20352;-72
2022/02/19 06:28:54;;;;;;;11.07;2.50;;;;;;;3.97;78.88;101100.63;6264084;22;20027;-73
2022/02/19 06:31:22;;;;;;;14.13;3.42;;;;;;;3.99;79.46;101125.31;6264824;22;20034;-72
2022/02/19 06:33:51;;;;;;;13.68;3.70;;;;;;;3.93;80.10;101136.72;6264084;22;20119;-73
2022/02/19 06:36:20;;;;;;;20.83;2.85;;;;;;;3.99;80.13;101131.47;6264161;22;20027;-73
2022/02/19 06:38:49;;;;;;;16.80;3.67;;;;;;;3.98;79.99;101148.16;6263585;22;20094;-73
2022/02/19 06:41:17;;;;;;;8.93;2.45;;;;;;;3.96;79.53;101142.00;6264509;22;20571;-72
2022/02/19 06:43:46;;;;;;;13.98;3.30;;;;;;;3.93;79.21;101144.66;6264559;22;20028;-72
2022/02/19 06:46:14;;;;;;;13.70;3.03;;;;;;;3.93;78.79;101153.47;6263214;22;20020;-72
2022/02/19 06:48:42;;;;;;;14.20;2.65;;;;;;;4.05;77.13;101149.94;6264074;22;20094;-72
2022/02/19 06:51:11;;;;;;;14.70;4.13;;;;;;;4.01;76.88;101158.72;6264412;22;20476;-72
2022/02/19 06:53:41;;;;;;;11.60;2.92;;;;;;;4.05;76.49;101160.50;6263440;22;20019;-72
2022/02/19 06:56:10;;;;;;;17.13;2.80;;;;;;;4.07;76.24;101169.31;6263615;22;20098;-72
2022/02/19 06:58:40;;;;;;;24.13;3.40;;;;;;;3.97;77.55;101171.94;6264587;22;20050;-72
2022/02/19 07:01:08;;;;;;;10.88;2.60;;;;;;;3.95;78.25;101171.06;6262792;22;20357;-74
2022/02/19 07:03:39;;;;;;;13.57;2.72;;;;;;;4.05;77.87;101181.63;6265785;22;20501;-72
2022/02/19 07:06:07;;;;;;;7.47;2.42;;;;;;;4.00;77.80;101182.50;6264478;22;20508;-72
2022/02/19 07:08:35;;;;;;;21.17;3.55;;;;;;;3.98;78.21;101189.53;6263888;22;20030;-72
2022/02/19 07:11:03;;;;;;;14.35;2.58;;;;;;;3.94;78.34;101193.94;6263853;22;20023;-74
2022/02/19 07:13:32;;;;;;;20.30;3.97;;;;;;;3.99;77.86;101191.31;6264682;22;20334;-72
2022/02/19 07:16:03;;;;;;;12.65;2.60;;;;;;;4.03;78.16;101204.50;6264977;22;20097;-71
2022/02/19 07:18:31;;;;;;;13.88;3.22;;;;;;;4.04;78.78;101206.28;6264203;22;20166;-73
2022/02/19 07:20:59;;;;;;;9.32;3.22;;;;;;;4.08;78.62;101215.06;6264659;22;20032;-72
2022/02/19 07:23:27;;;;;;;14.10;2.97;;;;;;;4.08;78.40;101213.31;6263539;22;20066;-72
2022/02/19 07:26:00;;;;;;;6.95;2.28;;;;;;;4.08;78.55;101215.94;6264806;22;20081;-76
2022/02/19 07:28:29;;;;;;;11.75;2.70;;;;;;;4.14;77.79;101220.38;6264849;22;20328;-75
2022/02/19 07:31:01;;;;;;;11.93;2.90;;;;;;;4.24;76.97;101230.06;6263639;22;20497;-75
2022/02/19 07:33:29;;;;;;;15.60;2.85;;;;;;;4.25;76.79;101223.00;6261729;22;20331;-75
2022/02/19 07:35:58;;;;;;;11.27;2.47;;;;;;;4.20;77.21;101215.06;6263220;22;20034;-75
2022/02/19 07:38:26;;;;;;;10.57;2.75;;;;;;;4.16;77.02;101221.25;6263356;22;20096;-76
2022/02/19 07:40:55;;;;;;;16.67;2.58;;;;;;;4.17;76.42;101225.66;6261438;22;20529;-75
2022/02/19 07:43:23;;;;;;;21.95;4.00;;;;;;;4.23;77.06;101235.34;6263318;22;20031;-75
2022/02/19 07:45:51;;;;;;;12.57;2.28;;;;;;;4.27;77.08;101231.81;6262444;22;20481;-72
2022/02/19 07:48:20;;;;;;;15.68;2.50;;;;;;;4.26;77.69;101230.06;6262102;22;20035;-73
2022/02/19 07:59:07;;;;;;;13.73;3.40;;;;;;;4.30;78.77;101252.97;6263577;22;20023;-75
2022/02/19 08:01:37;;;;;;;21.67;3.60;;;;;;;4.30;78.77;101252.97;6264046;22;20026;-76
2022/02/19 08:04:07;;;;;;;11.88;2.42;;;;;;;4.34;78.32;101261.75;6263975;22;20062;-76
2022/02/19 08:06:35;;;;;;;12.38;2.85;;;;;;;4.33;78.26;101260.88;6264363;22;20027;-76
2022/02/19 08:09:03;;;;;;;12.77;2.90;;;;;;;4.37;78.32;101265.28;6264486;22;20119;-76
2022/02/19 08:11:31;;;;;;;16.27;2.80;;;;;;;4.39;77.62;101262.63;6263838;22;20038;-72
2022/02/19 08:13:59;;;;;;;10.85;2.85;;;;;;;4.40;77.92;101270.56;6264433;22;20027;-73
2022/02/19 08:16:27;;;;;;;19.38;3.60;;;;;;;4.43;77.85;101270.56;6264501;22;20024;-72
2022/02/19 08:18:57;;;;;;;13.80;2.55;;;;;;;4.49;78.44;101277.63;6263409;22;20070;-72
2022/02/19 08:21:30;;;;;;;18.08;3.05;;;;;;;4.51;78.06;101280.25;6265406;22;20046;-73
2022/02/19 08:23:58;;;;;;;17.65;3.58;;;;;;;4.54;77.41;101290.84;6265905;22;20023;-72
2022/02/19 08:26:27;;;;;;;6.72;2.22;;;;;;;4.57;77.33;101291.72;6266223;22;20027;-73
2022/02/19 08:28:55;;;;;;;9.88;2.03;;;;;;;4.66;76.97;101301.41;6265436;22;20020;-71
2022/02/19 08:31:23;;;;;;;13.93;2.83;;;;;;;4.67;77.63;101300.53;6265235;22;20429;-72
2022/02/19 08:33:51;;;;;;;10.40;2.47;;;;;;;4.69;76.92;101306.69;6265514;22;20107;-72
2022/02/19 08:36:19;;;;;;;19.77;3.47;;;;;;;4.67;77.41;101311.09;6266661;22;20055;-71
2022/02/19 08:38:48;;;;;;;15.95;3.17;;;;;;;4.72;77.48;101308.47;6265034;22;20077;-71
2022/02/19 08:41:16;;;;;;;10.20;2.30;;;;;;;4.74;77.50;101302.28;6264289;22;20235;-71
2022/02/19 08:43:44;;;;;;;12.18;2.72;;;;;;;4.79;77.76;101315.50;6265224;22;20524;-72
2022/02/19 08:46:12;;;;;;;12.52;2.65;;;;;;;4.96;76.77;101315.50;6264162;22;20024;-71
2022/02/19 08:48:40;;;;;;;11.45;2.60;;;;;;;5.08;76.41;101306.66;6265045;22;20051;-71
2022/02/19 08:51:07;;;;;;;11.13;3.10;;;;;;;5.14;76.42;101301.34;6263059;22;20183;-71
2022/02/19 08:53:36;;;;;;;14.80;4.20;;;;;;;5.29;75.85;101309.22;6263702;22;20061;-71
2022/02/19 08:56:05;;;;;;;18.25;3.03;;;;;;;5.43;75.83;101336.56;6264195;22;20027;-73
2022/02/19 08:58:58;;;;;;;15.57;3.85;;;;;;;5.35;75.75;101321.59;6264361;22;20432;-73
2022/02/19 09:01:27;;;;;;;10.52;3.10;;;;;;;5.20;75.36;101333.97;6264200;22;20127;-73
2022/02/19 09:03:55;;;;;;;10.50;2.28;;;;;;;5.26;75.06;101332.19;6266537;22;20027;-73
2022/02/19 09:06:24;;;;;;;9.75;2.22;;;;;;;5.14;75.53;101338.38;6265265;22;20030;-71
2022/02/19 09:08:51;;;;;;;15.68;3.08;;;;;;;5.28;76.04;101338.34;6267012;22;20034;-72
2022/02/19 09:11:21;;;;;;;12.60;2.88;;;;;;;5.51;75.92;101341.81;6263553;22;20028;-71
2022/02/19 09:13:51;;;;;;;12.23;2.90;;;;;;;5.47;75.81;101331.25;6264925;22;20043;-71
2022/02/19 09:16:19;;;;;;;14.63;3.05;;;;;;;5.75;74.88;101332.91;6263614;22;20373;-72
2022/02/19 09:18:47;;;;;;;11.52;2.40;;;;;;;5.93;74.63;101336.38;6265188;22;20051;-71
2022/02/19 09:21:15;;;;;;;15.57;2.75;;;;;;;6.01;74.44;101331.94;6263262;22;20018;-71
2022/02/19 09:23:42;;;;;;;14.32;2.85;;;;;;;5.85;74.16;101346.13;6263211;22;20024;-72
2022/02/19 09:26:10;;;;;;;13.07;2.60;;;;;;;5.83;74.26;101338.16;6265660;22;20038;-71
2022/02/19 09:28:40;;;;;;;17.67;3.05;;;;;;;5.83;75.30;101348.78;6264396;22;20077;-71
2022/02/19 09:31:09;;;;;;;15.32;2.47;;;;;;;5.77;75.24;101347.03;6265205;22;20069;-71
2022/02/19 09:33:37;;;;;;;11.73;2.75;;;;;;;5.88;75.63;101346.97;6264484;22;20062;-71
2022/02/19 09:36:07;;;;;;;13.20;2.58;;;;;;;5.82;75.17;101348.78;6264338;22;20023;-71
2022/02/19 09:38:35;;;;;;;11.70;2.70;;;;;;;5.92;74.71;101343.41;6260429;22;20527;-72
2022/02/19 09:41:07;;;;;;;11.88;2.55;;;;;;;6.17;74.16;101349.50;6259329;22;20024;-72
2022/02/19 09:43:35;;;;;;;12.23;2.90;;;;;;;6.41;72.80;101354.69;6262483;22;20449;-72
2022/02/19 09:46:06;;;;;;;14.25;3.90;;;;;;;6.49;72.00;101343.13;6264747;22;20024;-72
2022/02/19 09:48:35;;;;;;;25.23;2.70;;;;;;;6.80;72.19;101360.59;6262897;22;20047;-72
2022/02/19 09:51:05;;;;;;;14.68;2.67;;;;;;;6.95;71.23;101359.53;6261619;22;20028;-72
2022/02/19 09:53:32;;;;;;;14.18;2.55;;;;;;;6.62;71.02;101349.19;6260744;22;20034;-72
2022/02/19 09:56:03;;;;;;;11.43;4.30;;;;;;;6.48;71.34;101361.69;6263391;22;20027;-72
2022/02/19 09:58:33;;;;;;;9.57;2.90;;;;;;;6.39;72.03;101353.81;6262218;22;20081;-72
2022/02/19 10:04:02;;;;;;;24.50;3.20;;;;;;;6.42;71.74;101367.03;5121603;27;20765;-73
2022/02/19 10:06:32;;;;;;;10.98;2.72;;;;;;;6.35;71.95;101369.72;5074596;28;20097;-74
2022/02/19 10:09:11;;;;;;;12.82;2.58;;;;;;;6.53;72.75;101373.16;5072291;28;20201;-71
2022/02/19 10:11:40;;;;;;;16.80;3.05;;;;;;;6.54;73.11;101372.28;5073683;28;20063;-72
2022/02/19 10:14:23;;;;;;;26.67;3.45;;;;;;;6.40;74.04;101372.31;5072601;28;20058;-71
2022/02/19 10:17:07;;;;;;;13.50;2.70;;;;;;;6.39;74.44;101390.94;5079364;28;20064;-72
2022/02/19 10:19:49;;;;;;;9.02;2.55;;;;;;;6.29;73.92;101385.66;5075829;28;20054;-72
2022/02/19 10:22:20;;;;;;;11.60;2.90;;;;;;;6.42;73.54;101388.22;5075605;28;20113;-73
2022/02/19 10:24:51;;;;;;;9.20;1.88;;;;;;;6.39;72.66;101393.56;5075278;28;20089;-72
2022/02/19 10:27:20;;;;;;;16.42;3.70;;;;;;;6.56;73.66;101393.47;5074317;28;20049;-74
2022/02/19 10:29:50;;;;;;;13.18;3.30;;;;;;;6.53;73.08;101394.34;5076821;28;20060;-72
2022/02/19 10:32:19;;;;;;;11.30;2.88;;;;;;;7.04;73.29;101389.53;5076635;28;20036;-74
2022/02/19 10:35:02;;;;;;;18.92;3.28;;;;;;;7.21;72.21;101381.44;5076187;28;20106;-73
2022/02/19 10:37:30;;;;;;;11.15;2.17;;;;;;;7.63;71.78;101373.91;5070481;28;20510;-73
2022/02/19 10:39:59;;;;;;;20.42;3.53;;;;;;;7.92;70.14;101382.47;5076698;28;20577;-72
2022/02/19 10:42:34;;;;;;;12.52;2.60;;;;;;;7.50;70.09;101377.59;5072593;28;20194;-73
2022/02/19 10:45:10;;;;;;;12.48;3.17;;;;;;;7.74;68.96;101373.78;5074609;28;20056;-73
2022/02/19 10:47:38;;;;;;;9.88;2.90;;;;;;;7.84;67.86;101372.78;5072639;28;20292;-75
2022/02/19 10:50:11;;;;;;;14.65;3.35;;;;;;;7.96;67.86;101389.47;5072693;28;20060;-72
2022/02/19 10:52:52;;;;;;;11.63;3.05;;;;;;;8.28;66.75;101402.34;5069814;28;20308;-73
2022/02/19 10:55:23;;;;;;;14.57;2.20;;;;;;;8.17;67.89;101388.31;5076224;28;20264;-73
2022/02/19 10:57:56;;;;;;;11.48;2.47;;;;;;;8.57;66.75;101401.09;5073883;28;20086;-72
2022/02/19 11:00:25;;;;;;;17.33;2.75;;;;;;;8.40;66.79;101394.19;5076492;28;20056;-73
2022/02/19 11:02:53;;;;;;;12.55;2.38;;;;;;;8.15;66.14;101387.47;5074460;28;20036;-73
2022/02/19 11:05:23;;;;;;;11.73;2.33;;;;;;;8.09;65.77;101376.88;5075977;28;20535;-72
2022/02/19 11:07:52;;;;;;;7.57;2.13;;;;;;;8.00;65.44;101389.44;5073466;28;20048;-73
2022/02/19 11:10:22;;;;;;;13.88;2.70;;;;;;;8.03;65.52;101399.13;5074475;28;20048;-73
2022/02/19 11:12:50;;;;;;;19.35;2.83;;;;;;;8.50;65.95;101392.31;5072814;28;20044;-74
2022/02/19 11:15:20;;;;;;;10.18;2.30;;;;;;;8.49;64.01;101393.22;5058364;28;20077;-74
2022/02/19 11:17:48;;;;;;;15.27;2.85;;;;;;;8.39;64.04;101376.50;5060506;28;20106;-73
2022/02/19 11:20:17;;;;;;;12.00;2.72;;;;;;;8.54;62.51;101383.38;5060051;28;20055;-75
2022/02/19 11:22:47;;;;;;;13.52;3.83;;;;;;;7.86;63.04;101394.00;5059361;28;20052;-73
2022/02/19 11:25:16;;;;;;;13.85;2.60;;;;;;;8.25;63.74;101373.13;5062453;28;20048;-75
2022/02/19 11:27:47;;;;;;;14.68;2.67;;;;;;;8.40;62.27;101383.56;5061678;28;20129;-74
2022/02/19 11:30:21;;;;;;;13.77;2.35;;;;;;;8.05;60.17;101381.38;5055720;28;20051;-75
2022/02/19 11:32:52;;;;;;;8.88;3.17;;;;;;;8.06;60.70;101369.84;5058600;28;20098;-75
2022/02/19 11:35:32;;;;;;;13.05;2.45;;;;;;;8.40;60.82;101372.06;5059544;28;21542;-75
2022/02/19 11:38:01;;;;;;;14.02;2.65;;;;;;;8.35;60.80;101389.84;5064600;28;20484;-74
2022/02/19 11:40:44;;;;;;;10.15;2.45;;;;;;;8.40;61.15;101372.91;5059056;28;20072;-73
2022/02/19 11:43:34;;;;;;;9.63;2.50;;;;;;;8.05;61.46;101368.09;5063127;28;20072;-73
2022/02/19 11:46:11;;;;;;;11.55;3.22;;;;;;;8.19;61.54;101368.78;5062366;28;20045;-73
2022/02/19 11:48:40;;;;;;;8.98;2.67;;;;;;;8.36;60.60;101363.25;5059501;28;20049;-73